»·PEaware :: WAT1252 KSBP-KSAN

WAT1252 :: KSBP-KSAN

FLIGHT INFORMATION

Flight Status: Arrived
Operator:
Walker Air Transport
More flights by this operator :: More flights under this callsign
Pilot: David D. (37029)
Aircraft: PIPER PA-31/31P NAVAJO CHIEFTAIN
(PA31)
More flights by this aircraft type
Origin: KSBP San Luis Co Regl
United States
Destination: KSAN San Diego Intl-Lindbergh
United States
More flights between these airports :: More routes between these airports
Route: CREPE3 MQO RZS V597 MZB
File this flight plan on PilotEdge
Remarks:
Altitude:
(Current/Filed)
9,000ft
Speed:
(Current/Filed)
180kts
Departed: 08-Aug-23 02:00 PM
Arrived: 08-Aug-23 03:40 PM
Distance/Time
Traveled:
229nm/1:40
Distance/Time
To Go:
Arrived

Flight Plot

Page will automatically refresh every two minutes.

Flight plan parsing failed; only flown route is shown


Map Options




Map Legend


Flown Route
Filed Route
Departure Airport
Arrival Airport
Navaid (VOR, NDB)
Fix

Horizontal Profiles

Position Reports

Time Latitude Longitude Heading Altitude Ground
Speed
08-Aug-23 13:29 35.236503 -120.636887 125 216ft 0kts
08-Aug-23 13:30 35.236503 -120.636887 125 216ft 0kts
08-Aug-23 13:31 35.236503 -120.636887 125 216ft 0kts
08-Aug-23 13:32 35.236503 -120.636887 125 216ft 0kts
08-Aug-23 13:33 35.236503 -120.636887 125 216ft 0kts
08-Aug-23 13:34 35.236503 -120.636887 125 216ft 0kts
08-Aug-23 13:35 35.236503 -120.636887 125 216ft 0kts
08-Aug-23 13:36 35.236503 -120.636887 125 216ft 0kts
08-Aug-23 13:37 35.236502 -120.636887 125 216ft 0kts
08-Aug-23 13:38 35.236502 -120.636887 125 216ft 0kts
08-Aug-23 13:39 35.236502 -120.636887 125 216ft 0kts
08-Aug-23 13:40 35.236502 -120.636887 125 216ft 0kts
08-Aug-23 13:41 35.236502 -120.636887 125 216ft 0kts
08-Aug-23 13:42 35.236502 -120.636887 125 216ft 0kts
08-Aug-23 13:43 35.236502 -120.636887 125 216ft 0kts
08-Aug-23 13:44 35.236502 -120.636887 125 216ft 0kts
08-Aug-23 13:45 35.236502 -120.636887 125 216ft 0kts
08-Aug-23 13:46 35.236502 -120.636887 125 216ft 0kts
08-Aug-23 13:47 35.236502 -120.636887 125 216ft 0kts
08-Aug-23 13:48 35.236502 -120.636887 125 216ft 0kts
08-Aug-23 13:49 35.236502 -120.636887 125 216ft 0kts
08-Aug-23 13:50 35.236502 -120.636887 125 216ft 0kts
08-Aug-23 13:51 35.236502 -120.636887 125 216ft 0kts
08-Aug-23 13:53 35.236048 -120.636383 180 216ft 9kts
08-Aug-23 13:54 35.234106 -120.633427 125 216ft 15kts
08-Aug-23 13:55 35.233258 -120.632323 198 216ft 0kts
08-Aug-23 13:56 35.233258 -120.632323 198 216ft 0kts
08-Aug-23 13:57 35.233258 -120.632323 198 216ft 0kts
08-Aug-23 13:58 35.233258 -120.632323 198 216ft 0kts
08-Aug-23 13:59 35.233036 -120.632452 213 216ft 5kts
08-Aug-23 14:00 35.239962 -120.645124 307 489ft 88kts
08-Aug-23 14:01 35.255760 -120.670527 304 1667ft 88kts
08-Aug-23 14:02 35.270045 -120.698531 300 2599ft 100kts
08-Aug-23 14:03 35.285869 -120.727117 300 3639ft 103kts
08-Aug-23 14:04 35.302343 -120.756478 300 4665ft 109kts
08-Aug-23 14:05 35.320180 -120.788394 301 5727ft 117kts
08-Aug-23 14:06 35.338628 -120.821573 301 6830ft 119kts
08-Aug-23 14:07 35.354176 -120.863817 251 7349ft 150kts
08-Aug-23 14:08 35.322665 -120.895081 208 8060ft 150kts
08-Aug-23 14:09 35.285499 -120.894421 128 8782ft 151kts
08-Aug-23 14:10 35.271531 -120.842407 103 8998ft 176kts
08-Aug-23 14:11 35.257671 -120.782384 104 8996ft 188kts
08-Aug-23 14:12 35.229545 -120.728491 129 8995ft 193kts
08-Aug-23 14:13 35.194343 -120.681317 129 8994ft 184kts
08-Aug-23 14:14 35.160364 -120.635543 129 8995ft 179kts
08-Aug-23 14:15 35.126991 -120.590698 129 8997ft 178kts
08-Aug-23 14:16 35.093829 -120.546156 129 8999ft 176kts
08-Aug-23 14:17 35.060550 -120.501512 129 9002ft 179kts
08-Aug-23 14:18 35.026840 -120.456391 129 9004ft 180kts
08-Aug-23 14:18 34.998571 -120.418565 129 9004ft 181kts
08-Aug-23 14:20 34.958806 -120.365437 128 9004ft 182kts
08-Aug-23 14:21 34.924603 -120.319810 128 9007ft 183kts
08-Aug-23 14:22 34.890069 -120.273798 127 9004ft 184kts
08-Aug-23 14:23 34.855253 -120.227468 127 8999ft 185kts
08-Aug-23 14:23 34.826174 -120.188801 127 8988ft 186kts
08-Aug-23 14:24 34.791172 -120.142343 127 8978ft 187kts
08-Aug-23 14:25 34.755861 -120.095543 127 8971ft 187kts
08-Aug-23 14:27 34.714741 -120.041128 127 8967ft 188kts
08-Aug-23 14:27 34.685192 -120.002078 127 8967ft 188kts
08-Aug-23 14:28 34.649660 -119.955185 127 8973ft 187kts
08-Aug-23 14:29 34.614393 -119.908696 127 8980ft 187kts
08-Aug-23 14:30 34.579931 -119.863352 131 8987ft 178kts
08-Aug-23 14:31 34.546677 -119.819648 131 8994ft 175kts
08-Aug-23 14:32 34.513912 -119.776469 128 9001ft 173kts
08-Aug-23 14:33 34.500724 -119.721063 102 9004ft 172kts
08-Aug-23 14:34 34.491518 -119.664330 102 9004ft 171kts
08-Aug-23 14:35 34.481999 -119.607537 102 9003ft 171kts
08-Aug-23 14:36 34.472414 -119.550979 102 9003ft 171kts
08-Aug-23 14:37 34.462813 -119.494531 102 9002ft 171kts
08-Aug-23 14:38 34.453178 -119.438035 102 9000ft 171kts
08-Aug-23 14:39 34.443542 -119.381712 102 8998ft 171kts
08-Aug-23 14:40 34.433872 -119.325349 103 8999ft 171kts
08-Aug-23 14:41 34.424161 -119.268899 103 8996ft 171kts
08-Aug-23 14:42 34.414391 -119.212271 103 8994ft 171kts
08-Aug-23 14:43 34.404592 -119.155636 103 8991ft 172kts
08-Aug-23 14:44 34.394738 -119.098845 103 8989ft 172kts
08-Aug-23 14:45 34.384855 -119.042061 103 8987ft 173kts
08-Aug-23 14:46 34.374891 -118.984973 103 8986ft 173kts
08-Aug-23 14:47 34.364890 -118.927839 104 8986ft 173kts
08-Aug-23 14:48 34.353408 -118.871631 114 8986ft 171kts
08-Aug-23 14:49 34.335326 -118.818231 115 8986ft 171kts
08-Aug-23 14:50 34.317220 -118.765194 115 8996ft 170kts
08-Aug-23 14:51 34.299119 -118.712187 114 8996ft 170kts
08-Aug-23 14:52 34.281040 -118.659318 114 8996ft 170kts
08-Aug-23 14:53 34.262994 -118.606632 114 8995ft 169kts
08-Aug-23 14:54 34.244927 -118.553982 114 8995ft 169kts
08-Aug-23 14:55 34.226966 -118.501726 114 8996ft 168kts
08-Aug-23 14:56 34.210183 -118.448544 112 8997ft 169kts
08-Aug-23 14:57 34.194237 -118.395151 112 8997ft 169kts
08-Aug-23 14:58 34.178019 -118.341620 112 8998ft 169kts
08-Aug-23 14:59 34.161704 -118.288001 112 8997ft 170kts
08-Aug-23 15:00 34.127469 -118.252266 151 8997ft 170kts
08-Aug-23 15:01 34.084525 -118.227902 152 8997ft 170kts
08-Aug-23 15:02 34.041652 -118.203341 152 8998ft 170kts
08-Aug-23 15:03 33.998963 -118.178719 152 8998ft 170kts
08-Aug-23 15:04 33.956051 -118.153977 152 8998ft 170kts
08-Aug-23 15:05 33.913442 -118.129441 152 8998ft 170kts
08-Aug-23 15:06 33.870687 -118.104849 152 9003ft 171kts
08-Aug-23 15:07 33.827600 -118.080094 152 9004ft 172kts
08-Aug-23 15:08 33.784549 -118.054805 144 9005ft 172kts
08-Aug-23 15:09 33.749692 -118.015243 130 8995ft 174kts
08-Aug-23 15:10 33.715258 -117.974151 136 8994ft 174kts
08-Aug-23 15:11 33.680839 -117.933444 136 8991ft 173kts
08-Aug-23 15:12 33.646384 -117.892785 135 8990ft 172kts
08-Aug-23 15:13 33.612173 -117.852466 135 8989ft 172kts
08-Aug-23 15:14 33.577294 -117.811425 135 8707ft 180kts
08-Aug-23 15:15 33.541230 -117.769025 136 8257ft 182kts
08-Aug-23 15:16 33.505071 -117.726532 137 7812ft 182kts
08-Aug-23 15:17 33.468679 -117.683806 138 7366ft 184kts
08-Aug-23 15:18 33.431032 -117.639684 131 6900ft 192kts
08-Aug-23 15:19 33.392752 -117.594937 131 6465ft 191kts
08-Aug-23 15:20 33.354552 -117.550330 131 6026ft 193kts
08-Aug-23 15:21 33.315957 -117.505285 132 5588ft 195kts
08-Aug-23 15:22 33.277874 -117.460890 138 5176ft 187kts
08-Aug-23 15:23 33.241387 -117.419452 148 5032ft 172kts
08-Aug-23 15:24 33.197943 -117.399476 162 5036ft 165kts
08-Aug-23 15:25 33.154202 -117.381205 161 5036ft 169kts
08-Aug-23 15:26 33.109503 -117.362415 161 5036ft 171kts
08-Aug-23 15:27 33.064495 -117.343501 162 5035ft 171kts
08-Aug-23 15:28 33.019008 -117.324425 162 5036ft 176kts
08-Aug-23 15:29 32.972336 -117.304852 162 5037ft 179kts
08-Aug-23 15:30 32.925323 -117.285164 162 5038ft 179kts
08-Aug-23 15:31 32.877135 -117.264961 162 4559ft 191kts
08-Aug-23 15:32 32.827639 -117.244226 163 3436ft 188kts
08-Aug-23 15:33 32.796657 -117.202668 102 2619ft 162kts
08-Aug-23 15:34 32.788774 -117.160750 105 2164ft 111kts
08-Aug-23 15:35 32.779334 -117.128414 135 1502ft 102kts
08-Aug-23 15:36 32.752151 -117.129035 193 1120ft 99kts
08-Aug-23 15:37 32.728927 -117.145019 235 879ft 99kts
08-Aug-23 15:38 32.729858 -117.174631 286 167ft 94kts
08-Aug-23 15:39 32.734493 -117.190926 19 20ft 4kts
08-Aug-23 15:40 32.733966 -117.186592 106 20ft 23kts
08-Aug-23 15:41 32.732523 -117.180228 67 20ft 12kts
08-Aug-23 15:42 32.733690 -117.178867 106 20ft 0kts
08-Aug-23 15:43 32.733688 -117.178859 106 20ft 0kts

Navigation Log

Ident Type
Flight plan parsing failed, navigation log unavailable